createdAt,value
2018-12-09T00:01:28.528Z,96171.38
2018-12-09T00:04:02.607Z,96159.48
2018-12-09T00:06:36.629Z,96133.52
2018-12-09T00:09:10.661Z,96146.90
2018-12-09T00:11:44.567Z,96141.23
2018-12-09T00:14:19.398Z,96153.61
2018-12-09T00:16:53.152Z,96146.61
2018-12-09T00:19:27.007Z,96134.24
2018-12-09T00:22:00.812Z,96194.19
2018-12-09T00:24:34.789Z,96136.31
2018-12-09T00:27:08.832Z,96127.80
2018-12-09T00:29:42.943Z,96115.38
2018-12-09T00:32:16.854Z,96104.14
2018-12-09T00:34:50.699Z,96093.17
2018-12-09T00:37:24.839Z,96084.64
2018-12-09T00:39:58.674Z,96085.42
2018-12-09T00:42:32.684Z,96098.23
2018-12-09T00:45:06.759Z,96093.35
2018-12-09T00:47:40.805Z,96091.55
2018-12-09T00:50:14.714Z,96095.12
2018-12-09T00:52:48.347Z,96084.37
2018-12-09T00:55:22.323Z,96086.75
2018-12-09T00:57:56.231Z,96072.66
2018-12-09T01:00:30.105Z,96074.80
2018-12-09T01:03:04.455Z,96076.92
2018-12-09T01:05:38.309Z,96071.20
2018-12-09T01:08:12.577Z,96071.94
2018-12-09T01:10:46.281Z,95881.72
2018-12-09T01:13:20.191Z,96078.51
2018-12-09T01:15:55.451Z,96060.94
2018-12-09T01:18:29.501Z,96057.51
2018-12-09T01:21:03.725Z,96057.85
2018-12-09T01:23:37.866Z,96054.66
2018-12-09T01:26:11.785Z,96056.30
2018-12-09T01:28:46.146Z,96038.56
2018-12-09T01:31:20.358Z,96044.48
2018-12-09T01:33:54.267Z,96045.64
2018-12-09T01:36:28.219Z,96048.67
2018-12-09T01:39:02.135Z,96035.29
2018-12-09T01:41:36.125Z,96034.95
2018-12-09T01:44:10.354Z,96037.41
2018-12-09T01:46:44.467Z,96030.30
2018-12-09T01:49:18.514Z,96017.88
2018-12-09T01:51:52.502Z,96031.75
2018-12-09T01:54:26.800Z,96017.92
2018-12-09T01:57:01.019Z,96018.16
2018-12-09T01:59:35.254Z,96008.93
2018-12-09T02:02:09.581Z,96017.91
2018-12-09T02:04:44.597Z,96024.61
2018-12-09T02:07:18.707Z,96045.73
2018-12-09T02:09:54.373Z,96033.64
2018-12-09T02:12:28.284Z,96065.96
2018-12-09T02:15:02.252Z,96058.06
2018-12-09T02:17:36.402Z,96030.56
2018-12-09T02:20:10.427Z,96059.05
2018-12-09T02:22:44.702Z,96061.44
2018-12-09T02:25:19.225Z,96043.69
2018-12-09T02:27:53.145Z,96053.22
2018-12-09T02:30:28.170Z,96071.48
2018-12-09T02:33:02.301Z,95684.66
2018-12-09T02:35:40.614Z,96080.95
2018-12-09T02:38:14.709Z,96057.58
2018-12-09T02:40:48.704Z,96056.70
2018-12-09T02:43:22.964Z,96070.19
2018-12-09T02:45:57.031Z,96069.20
2018-12-09T02:48:31.143Z,96064.90
2018-12-09T02:51:05.011Z,96074.16
2018-12-09T02:53:39.274Z,96072.80
2018-12-09T02:56:14.301Z,96082.55
2018-12-09T02:58:48.411Z,96090.26
2018-12-09T03:01:22.419Z,96083.27
2018-12-09T03:03:56.431Z,96089.19
2018-12-09T03:06:30.479Z,96096.16
2018-12-09T03:09:06.545Z,96086.98
2018-12-09T03:11:40.391Z,96086.88
2018-12-09T03:14:14.516Z,96097.87
2018-12-09T03:16:48.746Z,96100.52
2018-12-09T03:19:22.603Z,96105.70
2018-12-09T03:21:56.856Z,96107.98
2018-12-09T03:24:30.760Z,96107.36
2018-12-09T03:27:04.876Z,96109.06
2018-12-09T03:29:38.744Z,96112.84
2018-12-09T03:32:13.205Z,96126.94
2018-12-09T03:34:47.110Z,96134.53
2018-12-09T03:37:21.117Z,96161.71
2018-12-09T03:39:55.129Z,96157.41
2018-12-09T03:42:29.754Z,96152.87
2018-12-09T03:45:03.983Z,96161.70
2018-12-09T03:47:38.178Z,96158.83
2018-12-09T03:50:12.197Z,96164.37
2018-12-09T03:52:46.301Z,96154.12
2018-12-09T03:55:19.997Z,96162.33
2018-12-09T03:57:54.118Z,96167.59
2018-12-09T04:00:27.920Z,96156.09
2018-12-09T04:03:02.135Z,96155.97
2018-12-09T04:05:36.148Z,96162.80
2018-12-09T04:08:10.110Z,96169.65
2018-12-09T04:10:43.857Z,96176.05
2018-12-09T04:13:17.790Z,96186.52
2018-12-09T04:15:51.723Z,96178.02
2018-12-09T04:18:25.579Z,96183.61
2018-12-09T04:20:59.547Z,96183.85
2018-12-09T04:23:33.599Z,96188.73
2018-12-09T04:26:07.816Z,96185.42
2018-12-09T04:28:41.476Z,96188.10
2018-12-09T04:31:15.283Z,96185.74
2018-12-09T04:33:49.437Z,96194.19
2018-12-09T04:36:23.340Z,96185.20
2018-12-09T04:38:57.351Z,96190.11
2018-12-09T04:41:31.259Z,96193.23
2018-12-09T04:44:05.034Z,96201.69
2018-12-09T04:46:39.037Z,96198.12
2018-12-09T04:49:13.184Z,96196.41
2018-12-09T04:51:53.302Z,96208.97
2018-12-09T04:54:27.143Z,96199.75
2018-12-09T04:57:01.053Z,96206.98
2018-12-09T04:59:37.857Z,96209.91
2018-12-09T05:02:11.630Z,96205.17
2018-12-09T05:04:45.639Z,96213.60
2018-12-09T05:07:19.649Z,96208.61
2018-12-09T05:09:53.351Z,96210.88
2018-12-09T05:12:27.428Z,96214.66
2018-12-09T05:15:01.269Z,96217.62
2018-12-09T05:17:35.035Z,96215.73
2018-12-09T05:20:09.186Z,96223.28
2018-12-09T05:22:43.093Z,96232.27
2018-12-09T05:25:17.205Z,96227.67
2018-12-09T05:27:51.010Z,96236.31
2018-12-09T05:30:25.124Z,96244.19
2018-12-09T05:32:58.825Z,96239.93
2018-12-09T05:35:32.733Z,96229.97
2018-12-09T05:38:06.390Z,96235.95
2018-12-09T05:40:40.649Z,96245.30
2018-12-09T05:43:14.965Z,96243.81
2018-12-09T05:45:49.051Z,96240.40
2018-12-09T05:48:23.088Z,96249.45
2018-12-09T05:50:56.893Z,96245.12
2018-12-09T05:53:30.801Z,96238.03
2018-12-09T05:56:04.912Z,96241.56
2018-12-09T05:58:38.820Z,96231.97
2018-12-09T06:01:13.038Z,96231.16
2018-12-09T06:03:47.009Z,96234.23
2018-12-09T06:06:21.099Z,96233.68
2018-12-09T06:08:55.166Z,96232.42
2018-12-09T06:11:29.176Z,96239.00
2018-12-09T06:14:03.146Z,96222.30
2018-12-09T06:16:37.200Z,96233.89
2018-12-09T06:19:11.458Z,96224.46
2018-12-09T06:21:45.252Z,96228.34
2018-12-09T06:24:19.226Z,96231.44
2018-12-09T06:26:53.438Z,96236.13
2018-12-09T06:29:27.108Z,96247.66
2018-12-09T06:32:01.026Z,96245.52
2018-12-09T06:34:35.059Z,96250.00
2018-12-09T06:37:08.765Z,96244.30
2018-12-09T06:39:42.748Z,96246.06
2018-12-09T06:42:16.863Z,96241.80
2018-12-09T06:44:50.857Z,96261.13
2018-12-09T06:47:25.004Z,96255.07
2018-12-09T06:49:58.808Z,96271.12
2018-12-09T06:52:32.461Z,96272.02
2018-12-09T06:55:06.727Z,96274.23
2018-12-09T06:57:40.841Z,96291.36
2018-12-09T07:00:14.745Z,96285.97
2018-12-09T07:02:48.553Z,96289.22
2018-12-09T07:05:22.562Z,96285.52
2018-12-09T07:07:56.467Z,96291.20
2018-12-09T07:10:30.530Z,96293.92
2018-12-09T07:13:05.000Z,96307.12
2018-12-09T07:15:38.906Z,96308.75
2018-12-09T07:18:12.731Z,96305.09
2018-12-09T07:20:46.524Z,96308.54
2018-12-09T07:23:20.425Z,96274.28
2018-12-09T07:25:54.233Z,96319.45
2018-12-09T07:28:28.243Z,96325.47
2018-12-09T07:31:02.831Z,96322.42
2018-12-09T07:33:36.819Z,96328.27
2018-12-09T07:36:10.785Z,96325.12
2018-12-09T07:38:44.686Z,96330.27
2018-12-09T07:41:18.663Z,96331.92
2018-12-09T07:43:52.809Z,96325.00
2018-12-09T07:46:26.828Z,96325.47
2018-12-09T07:49:01.109Z,96337.97
2018-12-09T07:51:35.125Z,96344.67
2018-12-09T07:54:09.163Z,96339.58
2018-12-09T07:56:43.473Z,96340.81
2018-12-09T07:59:17.380Z,96355.92
2018-12-09T08:01:51.437Z,96353.90
2018-12-09T08:04:25.400Z,96354.23
2018-12-09T08:07:00.263Z,96363.08
2018-12-09T08:09:34.157Z,96365.79
2018-12-09T08:12:08.146Z,96361.52
2018-12-09T08:14:42.156Z,96370.00
2018-12-09T08:17:16.061Z,96378.05
2018-12-09T08:19:49.924Z,96372.64
2018-12-09T08:22:24.183Z,96382.88
2018-12-09T08:24:58.090Z,96393.23
2018-12-09T08:27:32.099Z,96391.47
2018-12-09T08:30:06.007Z,96399.12
2018-12-09T08:32:39.917Z,96395.11
2018-12-09T08:35:15.313Z,96406.41
2018-12-09T08:37:49.348Z,96382.78
2018-12-09T08:40:23.488Z,96389.33
2018-12-09T08:42:57.387Z,96406.54
2018-12-09T08:45:31.496Z,96406.28
2018-12-09T08:48:05.508Z,96408.21
2018-12-09T08:50:39.211Z,96402.88
2018-12-09T08:53:13.390Z,96406.79
2018-12-09T08:55:47.379Z,96414.92
2018-12-09T08:58:21.320Z,96416.62
2018-12-09T09:00:55.353Z,96405.09
2018-12-09T09:03:29.369Z,96416.34
2018-12-09T09:06:03.315Z,96409.82
2018-12-09T09:08:37.280Z,96407.21
2018-12-09T09:11:11.186Z,96408.83
2018-12-09T09:13:45.196Z,96415.42
2018-12-09T09:16:19.104Z,96423.51
2018-12-09T09:18:52.915Z,96417.88
2018-12-09T09:21:27.020Z,96418.57
2018-12-09T09:24:00.825Z,96418.21
2018-12-09T09:26:34.732Z,96421.78
2018-12-09T09:29:08.508Z,96414.17
2018-12-09T09:31:42.394Z,96421.40
2018-12-09T09:34:16.473Z,96417.67
2018-12-09T09:36:50.464Z,96426.70
2018-12-09T09:39:24.374Z,96414.92
2018-12-09T09:41:58.380Z,96414.61
2018-12-09T09:44:32.192Z,96431.84
2018-12-09T09:47:06.259Z,96430.69
2018-12-09T09:49:40.307Z,96417.16
2018-12-09T09:52:14.117Z,96402.64
2018-12-09T09:54:48.122Z,96424.88
2018-12-09T09:57:22.029Z,96417.38
2018-12-09T09:59:55.887Z,96419.50
2018-12-09T10:02:29.844Z,96415.70
2018-12-09T10:05:03.753Z,96419.19
2018-12-09T10:07:37.658Z,96417.22
2018-12-09T10:10:11.777Z,96423.61
2018-12-09T10:12:45.761Z,96426.86
2018-12-09T10:15:19.811Z,96441.14
2018-12-09T10:17:53.903Z,96450.68
2018-12-09T10:20:27.811Z,96434.14
2018-12-09T10:23:01.819Z,96432.37
2018-12-09T10:25:35.831Z,96426.04
2018-12-09T10:28:09.633Z,96427.06
2018-12-09T10:30:43.649Z,96431.67
2018-12-09T10:33:17.605Z,96423.42
2018-12-09T10:35:51.560Z,96425.47
2018-12-09T10:38:25.469Z,96426.28
2018-12-09T10:40:59.579Z,96428.56
2018-12-09T10:43:33.592Z,96431.20
2018-12-09T10:46:07.599Z,96427.22
2018-12-09T10:48:41.276Z,96443.27
2018-12-09T10:51:15.314Z,96437.57
2018-12-09T10:53:49.116Z,96453.77
2018-12-09T10:56:23.127Z,96446.19
2018-12-09T10:58:57.035Z,96447.13
2018-12-09T11:01:46.621Z,96442.26
2018-12-09T11:04:21.028Z,96450.02
2018-12-09T11:06:54.908Z,96457.77
2018-12-09T11:09:28.720Z,96456.03
2018-12-09T11:12:02.855Z,96465.98
2018-12-09T11:14:36.659Z,96459.85
2018-12-09T11:17:10.409Z,96465.25
2018-12-09T11:19:44.166Z,96475.00
2018-12-09T11:22:17.867Z,96474.55
2018-12-09T11:24:51.675Z,96473.57
2018-12-09T11:27:25.587Z,96471.05
2018-12-09T11:29:59.490Z,96480.17
2018-12-09T11:32:33.288Z,96478.38
2018-12-09T11:35:07.918Z,96495.64
2018-12-09T11:37:41.823Z,96500.47
2018-12-09T11:40:15.585Z,96512.85
2018-12-09T11:42:49.742Z,96525.61
2018-12-09T11:45:23.547Z,96533.11
2018-12-09T11:47:57.351Z,96551.97
2018-12-09T11:50:31.362Z,96558.49
2018-12-09T11:53:05.269Z,96561.23
2018-12-09T11:55:39.128Z,96566.09
2018-12-09T11:58:13.002Z,96583.94
2018-12-09T12:00:46.888Z,96571.64
2018-12-09T12:03:20.798Z,96570.48
2018-12-09T12:05:55.623Z,96569.95
2018-12-09T12:08:29.432Z,96572.80
2018-12-09T12:11:03.124Z,96574.53
2018-12-09T12:13:37.244Z,96575.18
2018-12-09T12:16:11.049Z,96584.41
2018-12-09T12:18:45.063Z,96591.05
2018-12-09T12:21:19.067Z,96591.86
2018-12-09T12:23:53.078Z,96588.44
2018-12-09T12:26:26.833Z,96596.09
2018-12-09T12:29:00.950Z,96604.80
2018-12-09T12:31:34.903Z,96599.97
2018-12-09T12:34:08.709Z,96606.12
2018-12-09T12:36:42.412Z,96599.07
2018-12-09T12:39:16.219Z,96602.26
2018-12-09T12:41:50.122Z,96599.13
2018-12-09T12:44:23.892Z,96605.94
2018-12-09T12:46:57.841Z,96608.81
2018-12-09T12:49:32.022Z,96600.34
2018-12-09T12:52:06.065Z,96607.11
2018-12-09T12:54:39.966Z,96607.70
2018-12-09T12:57:13.992Z,96610.33
2018-12-09T12:59:48.087Z,96619.35
2018-12-09T13:02:22.015Z,96628.47
2018-12-09T13:04:56.108Z,96626.34
2018-12-09T13:07:30.204Z,96625.61
2018-12-09T13:10:05.867Z,96632.71
2018-12-09T13:12:39.672Z,96639.16
2018-12-09T13:15:13.682Z,96646.70
2018-12-09T13:17:47.794Z,96656.59
2018-12-09T13:20:21.701Z,96651.38
2018-12-09T13:22:55.608Z,96658.91
2018-12-09T13:25:29.461Z,96660.13
2018-12-09T13:28:03.524Z,96656.79
2018-12-09T13:30:37.739Z,96657.19
2018-12-09T13:33:11.609Z,96653.39
2018-12-09T13:35:46.395Z,96647.83
2018-12-09T13:38:21.513Z,96646.30
2018-12-09T13:40:55.416Z,96643.41
2018-12-09T13:43:29.326Z,96641.61
2018-12-09T13:46:03.295Z,96641.51
2018-12-09T13:48:37.241Z,96642.64
2018-12-09T13:51:11.149Z,96650.72
2018-12-09T13:53:44.866Z,96654.45
2018-12-09T13:56:18.758Z,96657.98
2018-12-09T13:58:52.667Z,96652.83
2018-12-09T14:01:26.536Z,96654.86
2018-12-09T14:04:00.583Z,96658.70
2018-12-09T14:06:34.395Z,96659.20
2018-12-09T14:09:08.501Z,96662.22
2018-12-09T14:11:42.486Z,96671.48
2018-12-09T14:14:16.520Z,96677.22
2018-12-09T14:16:50.425Z,96668.86
2018-12-09T14:19:24.407Z,96679.74
2018-12-09T14:21:58.421Z,96690.63
2018-12-09T14:24:32.458Z,96699.30
2018-12-09T14:27:06.467Z,96703.31
2018-12-09T14:29:40.374Z,96708.65
2018-12-09T14:32:14.689Z,96717.81
2018-12-09T14:34:48.597Z,96727.20
2018-12-09T14:37:22.612Z,96735.41
2018-12-09T14:39:56.517Z,96745.79
2018-12-09T14:42:30.422Z,96741.95
2018-12-09T14:45:05.582Z,96748.80
2018-12-09T14:47:39.442Z,96747.73
2018-12-09T14:50:13.372Z,96751.66
2018-12-09T14:52:47.383Z,96756.56
2018-12-09T14:55:21.147Z,96761.91
2018-12-09T14:57:55.298Z,96758.48
2018-12-09T15:00:29.206Z,96769.64
2018-12-09T15:03:03.116Z,96787.63
2018-12-09T15:05:37.228Z,96800.00
2018-12-09T15:08:11.235Z,96801.45
2018-12-09T15:10:45.039Z,96812.58
2018-12-09T15:13:18.846Z,96812.02
2018-12-09T15:15:52.957Z,96809.06
2018-12-09T15:18:26.967Z,96807.18
2018-12-09T15:21:00.749Z,96815.83
2018-12-09T15:23:34.862Z,96814.98
2018-12-09T15:26:08.895Z,96820.67
2018-12-09T15:28:42.643Z,96819.88
2018-12-09T15:31:16.509Z,96818.59
2018-12-09T15:33:50.513Z,96829.43
2018-12-09T15:36:24.321Z,96833.84
2018-12-09T15:38:58.327Z,96833.44
2018-12-09T15:41:32.134Z,96810.36
2018-12-09T15:44:05.937Z,96847.05
2018-12-09T15:46:39.641Z,96850.52
2018-12-09T15:49:13.753Z,96850.89
2018-12-09T15:51:47.660Z,96860.16
2018-12-09T15:54:21.700Z,96856.52
2018-12-09T15:56:55.489Z,96870.36
2018-12-09T15:59:32.241Z,96875.91
2018-12-09T16:02:05.544Z,96867.56
2018-12-09T16:04:39.318Z,96880.55
2018-12-09T16:07:13.151Z,96893.48
2018-12-09T16:09:47.221Z,96885.25
2018-12-09T16:12:21.183Z,96895.58
2018-12-09T16:14:55.386Z,96897.52
2018-12-09T16:17:29.399Z,96900.14
2018-12-09T16:20:04.747Z,96902.87
2018-12-09T16:22:38.587Z,96900.77
2018-12-09T16:25:12.605Z,96913.48
2018-12-09T16:27:46.813Z,96912.39
2018-12-09T16:30:20.837Z,96914.36
2018-12-09T16:32:54.782Z,96920.05
2018-12-09T16:35:28.924Z,96921.44
2018-12-09T16:38:03.007Z,96911.89
2018-12-09T16:40:37.032Z,96907.50
2018-12-09T16:43:11.860Z,96931.94
2018-12-09T16:45:46.128Z,96938.88
2018-12-09T16:48:20.684Z,96944.15
2018-12-09T16:50:54.737Z,96958.31
2018-12-09T16:53:28.603Z,96961.07
2018-12-09T16:56:02.714Z,96973.23
2018-12-09T16:58:36.621Z,96973.02
2018-12-09T17:01:10.528Z,96977.86
2018-12-09T17:03:44.310Z,96983.61
2018-12-09T17:06:18.856Z,96992.13
2018-12-09T17:08:52.864Z,97009.75
2018-12-09T17:11:26.670Z,97002.89
2018-12-09T17:14:00.682Z,97013.15
2018-12-09T17:16:34.588Z,97020.09
2018-12-09T17:19:08.425Z,97034.11
2018-12-09T17:21:42.405Z,97031.98
2018-12-09T17:24:16.206Z,97044.03
2018-12-09T17:26:50.115Z,97056.20
2018-12-09T17:29:24.020Z,97071.43
2018-12-09T17:31:58.033Z,97072.14
2018-12-09T17:34:31.990Z,97077.41
2018-12-09T17:37:06.168Z,97085.44
2018-12-09T17:39:40.526Z,97092.77
2018-12-09T17:42:14.788Z,97094.61
2018-12-09T17:44:48.730Z,97106.27
2018-12-09T17:47:22.806Z,97104.37
2018-12-09T17:49:56.942Z,97112.97
2018-12-09T17:52:30.932Z,97123.31
2018-12-09T17:55:05.045Z,97126.34
2018-12-09T17:57:39.248Z,97126.20
2018-12-09T18:00:13.369Z,97129.05
2018-12-09T18:02:47.275Z,97131.41
2018-12-09T18:05:21.181Z,97138.20
2018-12-09T18:07:55.330Z,97139.33
2018-12-09T18:10:29.308Z,97143.91
2018-12-09T18:13:03.418Z,97141.05
2018-12-09T18:15:37.321Z,97143.37
2018-12-09T18:18:11.024Z,97147.23
2018-12-09T18:20:44.930Z,97152.24
2018-12-09T18:23:18.782Z,97162.05
2018-12-09T18:25:52.850Z,97176.30
2018-12-09T18:28:27.473Z,97180.18
2018-12-09T18:31:01.791Z,97180.33
2018-12-09T18:33:36.004Z,97187.92
2018-12-09T18:36:09.865Z,97199.70
2018-12-09T18:38:44.023Z,97206.44
2018-12-09T18:41:18.088Z,97210.03
2018-12-09T18:43:52.146Z,97220.56
2018-12-09T18:46:25.847Z,97230.11
2018-12-09T18:48:59.769Z,97230.55
2018-12-09T18:51:33.866Z,97235.57
2018-12-09T18:54:08.801Z,97246.34
2018-12-09T18:56:42.602Z,97255.44
2018-12-09T18:59:16.495Z,97258.27
2018-12-09T19:01:50.446Z,97274.17
2018-12-09T19:04:24.844Z,97271.98
2018-12-09T19:06:58.850Z,97281.11
2018-12-09T19:09:32.960Z,97290.89
2018-12-09T19:12:07.172Z,97294.53
2018-12-09T19:14:43.129Z,97302.23
2018-12-09T19:17:16.933Z,97301.05
2018-12-09T19:19:50.739Z,97298.67
2018-12-09T19:22:24.570Z,97301.77
2018-12-09T19:24:58.298Z,97299.52
2018-12-09T19:27:32.257Z,97310.50
2018-12-09T19:30:06.881Z,97314.04
2018-12-09T19:32:40.686Z,97317.47
2018-12-09T19:35:14.899Z,97327.15
2018-12-09T19:37:48.744Z,97330.52
2018-12-09T19:40:22.817Z,97335.13
2018-12-09T19:42:56.725Z,97342.50
2018-12-09T19:45:30.719Z,97351.92
2018-12-09T19:48:05.092Z,97350.73
2018-12-09T19:50:38.958Z,97345.62
2018-12-09T19:53:13.171Z,97349.81
2018-12-09T19:55:47.284Z,97351.94
2018-12-09T19:58:20.933Z,97363.83
2018-12-09T20:00:54.860Z,97357.87
2018-12-09T20:03:28.903Z,97359.00
2018-12-09T20:06:02.708Z,97362.42
2018-12-09T20:08:36.515Z,97371.97
2018-12-09T20:11:10.399Z,97368.77
2018-12-09T20:13:44.328Z,97382.39
2018-12-09T20:16:18.234Z,97380.63
2018-12-09T20:18:52.041Z,97384.67
2018-12-09T20:21:26.053Z,97396.16
2018-12-09T20:23:59.956Z,97397.07
2018-12-09T20:26:33.967Z,97406.52
2018-12-09T20:29:07.975Z,97417.44
2018-12-09T20:31:41.985Z,97414.25
2018-12-09T20:34:16.100Z,97416.63
2018-12-09T20:36:50.048Z,97421.45
2018-12-09T20:39:24.939Z,97427.03
2018-12-09T20:41:58.979Z,97426.70
2018-12-09T20:44:33.067Z,97337.50
2018-12-09T20:47:06.965Z,97440.08
2018-12-09T20:49:40.978Z,97455.97
2018-12-09T20:52:14.985Z,97455.37
2018-12-09T20:54:48.858Z,97454.03
2018-12-09T20:57:22.913Z,97467.47
2018-12-09T20:59:57.116Z,97477.29
2018-12-09T21:02:31.238Z,97484.23
2018-12-09T21:05:05.238Z,97483.02
2018-12-09T21:07:40.131Z,97490.97
2018-12-09T21:10:14.178Z,97500.98
2018-12-09T21:12:47.983Z,97511.16
2018-12-09T21:15:21.992Z,97510.05
2018-12-09T21:17:56.002Z,97502.09
2018-12-09T21:20:29.909Z,97519.52
2018-12-09T21:23:03.897Z,97541.80
2018-12-09T21:25:37.887Z,97517.50
2018-12-09T21:28:12.042Z,97526.99
2018-12-09T21:30:45.849Z,97532.25
2018-12-09T21:33:19.861Z,97543.98
2018-12-09T21:35:54.786Z,97542.26
2018-12-09T21:38:28.898Z,97551.72
2018-12-09T21:41:02.704Z,97558.64
2018-12-09T21:43:36.717Z,97562.21
2018-12-09T21:46:10.833Z,97573.83
2018-12-09T21:48:44.836Z,97582.42
2018-12-09T21:51:18.743Z,97587.94
2018-12-09T21:53:52.956Z,97596.14
2018-12-09T21:56:26.893Z,97602.24
2018-12-09T21:59:00.875Z,97594.01
2018-12-09T22:01:34.919Z,97594.08
2018-12-09T22:04:08.792Z,97551.77
2018-12-09T22:06:42.601Z,97598.50
2018-12-09T22:09:16.401Z,97612.55
2018-12-09T22:11:50.648Z,97613.17
2018-12-09T22:14:24.733Z,97618.25
2018-12-09T22:16:58.738Z,97624.01
2018-12-09T22:19:32.384Z,97620.35
2018-12-09T22:22:06.346Z,97628.92
2018-12-09T22:24:40.254Z,97625.23
2018-12-09T22:27:14.469Z,97630.11
2018-12-09T22:29:48.170Z,97632.52
2018-12-09T22:32:22.081Z,97637.50
2018-12-09T22:34:55.995Z,97656.45
2018-12-09T22:37:29.892Z,97659.13
2018-12-09T22:40:05.035Z,97663.25
2018-12-09T22:42:39.038Z,97669.86
2018-12-09T22:45:13.253Z,97670.84
2018-12-09T22:47:47.131Z,97678.39
2018-12-09T22:50:21.164Z,97674.16
2018-12-09T22:52:54.974Z,97688.34
2018-12-09T22:55:28.827Z,97690.91
2018-12-09T22:58:02.891Z,97701.13
2018-12-09T23:00:38.950Z,97701.22
2018-12-09T23:03:12.959Z,97714.33
2018-12-09T23:05:46.867Z,97713.01
2018-12-09T23:08:20.670Z,97710.12
2018-12-09T23:10:54.382Z,97728.98
2018-12-09T23:13:28.293Z,97732.09
2018-12-09T23:16:02.291Z,97729.95
2018-12-09T23:18:36.197Z,97735.47
2018-12-09T23:21:10.104Z,97731.33
2018-12-09T23:23:43.779Z,97743.37
2018-12-09T23:26:18.021Z,97735.53
2018-12-09T23:28:52.018Z,97740.61
2018-12-09T23:31:26.143Z,97741.22
2018-12-09T23:34:00.049Z,97741.03
2018-12-09T23:36:33.911Z,97746.25
2018-12-09T23:39:08.171Z,97747.89
2018-12-09T23:41:41.976Z,97747.36
2018-12-09T23:44:15.788Z,97741.31
2018-12-09T23:46:49.688Z,97755.41
2018-12-09T23:49:23.800Z,97748.23
2018-12-09T23:51:57.707Z,97766.64
2018-12-09T23:54:31.537Z,97769.52
2018-12-09T23:57:05.421Z,97778.42
2018-12-09T23:59:39.329Z,97779.44
